Terminal Aerodrome Forecast
Issued by NWS Cleveland, OH

Home | Current Version | Previous Version | Text Only | Print | Product List | Glossary On
Versions: 1 2 3 4 5 6 7 8 9 10 11 12 13 14 15 16 17 18 19 20 21 22 23 24 25 26 27 28 29
000
FTUS41 KCLE 010500
TAFCLE
TAF
KCLE 010520Z 0106/0212 19006KT P6SM SCT250
      TEMPO 0107/0109 6SM BR
     FM010900 20005KT 6SM BR SCT012 BKN035
      TEMPO 0109/0113 4SM BR BKN012
     FM011400 21008KT 6SM HZ SCT012 BKN035
      TEMPO 0114/0116 BKN015
     FM011800 21012G18KT P6SM SCT045
     FM020200 20010KT P6SM SCT035 BKN120
     FM020600 20010KT 6SM HZ VCTS BKN035CB=

USA.gov is the U.S. government's official web portal to all federal, state and local government web resources and services.